Time;durP1;ratioP1;P1;durP2;ratioP2;P2;SDS_P1;SDS_P2;PMS_P1;PMS_P2;Temp;Humidity;BMP_temperature;BMP_pressure;BME280_temperature;BME280_humidity;BME280_pressure;Samples;Min_cycle;Max_cycle;Signal;HPM_P1;HPM_P2
2023/10/31 00:00:03;;;;;;;;;3.67;3.67;;;;;;;;5103389;27;45239;-76
2023/10/31 00:02:28;;;;;;;;;5.00;3.67;;;;;;;;5103580;27;45301;-76
2023/10/31 00:04:53;;;;;;;;;4.00;4.00;;;;;;;;5103326;27;45531;-77
2023/10/31 00:07:18;;;;;;;;;1.33;1.33;;;;;;;;5102975;27;45345;-77
2023/10/31 00:09:43;;;;;;;;;2.33;2.33;;;;;;;;5103401;27;45229;-76
2023/10/31 00:12:09;;;;;;;;;4.00;3.00;;;;;;;;5103378;27;45139;-77
2023/10/31 00:14:34;;;;;;;;;3.00;3.00;;;;;;;;5103339;27;45486;-76
2023/10/31 00:16:59;;;;;;;;;3.00;3.00;;;;;;;;5103151;27;46491;-76
2023/10/31 00:19:24;;;;;;;;;3.00;3.00;;;;;;;;5103335;27;45513;-76
2023/10/31 00:21:49;;;;;;;;;4.00;2.00;;;;;;;;5103139;27;45291;-77
2023/10/31 00:24:14;;;;;;;;;4.33;4.00;;;;;;;;5102854;27;45315;-76
2023/10/31 00:26:40;;;;;;;;;4.00;4.00;;;;;;;;5103027;27;45301;-76
2023/10/31 00:29:05;;;;;;;;;6.33;6.00;;;;;;;;5096107;27;45250;-76
2023/10/31 00:31:30;;;;;;;;;4.00;4.00;;;;;;;;5082658;28;45654;-76
2023/10/31 00:33:55;;;;;;;;;3.00;3.00;;;;;;;;5082336;28;45233;-76
2023/10/31 00:36:20;;;;;;;;;3.00;3.00;;;;;;;;5082311;28;45381;-77
2023/10/31 00:38:46;;;;;;;;;3.67;3.33;;;;;;;;5082155;28;45277;-77
2023/10/31 00:41:11;;;;;;;;;3.00;3.00;;;;;;;;5082436;28;45327;-77
2023/10/31 00:43:36;;;;;;;;;2.33;2.00;;;;;;;;5082286;28;45352;-76
2023/10/31 00:46:02;;;;;;;;;5.00;4.00;;;;;;;;5082171;28;46416;-76
2023/10/31 00:48:27;;;;;;;;;4.67;4.33;;;;;;;;5082412;28;45778;-76
2023/10/31 00:50:52;;;;;;;;;4.67;4.67;;;;;;;;5082329;28;45468;-76
2023/10/31 00:53:18;;;;;;;;;4.33;4.33;;;;;;;;5081975;28;45362;-77
2023/10/31 00:55:44;;;;;;;;;4.33;3.33;;;;;;;;5082188;28;45361;-76
2023/10/31 00:58:09;;;;;;;;;3.00;2.00;;;;;;;;5082113;28;45275;-77
2023/10/31 01:00:37;;;;;;;;;2.33;2.33;;;;;;;;5082195;28;45388;-76
2023/10/31 01:03:02;;;;;;;;;3.00;3.00;;;;;;;;5082094;28;45398;-76
2023/10/31 01:05:28;;;;;;;;;3.67;2.33;;;;;;;;5081656;28;46046;-76
2023/10/31 01:07:53;;;;;;;;;2.00;2.00;;;;;;;;5081784;28;45179;-76
2023/10/31 01:10:19;;;;;;;;;3.33;3.00;;;;;;;;5082194;28;45215;-76
2023/10/31 01:12:44;;;;;;;;;4.00;3.67;;;;;;;;5081869;28;45429;-76
2023/10/31 01:15:09;;;;;;;;;4.00;3.00;;;;;;;;5081777;28;45486;-76
2023/10/31 01:17:34;;;;;;;;;4.33;4.00;;;;;;;;5081874;28;45303;-77
2023/10/31 01:19:59;;;;;;;;;4.00;4.00;;;;;;;;5081954;28;45305;-76
2023/10/31 01:22:25;;;;;;;;;3.33;3.00;;;;;;;;5081350;28;45353;-76
2023/10/31 01:24:50;;;;;;;;;3.00;3.00;;;;;;;;5081511;28;46396;-76
2023/10/31 01:27:15;;;;;;;;;5.33;3.00;;;;;;;;5081755;28;45484;-76
2023/10/31 01:29:40;;;;;;;;;3.00;3.00;;;;;;;;5093564;27;45326;-77
2023/10/31 01:32:05;;;;;;;;;3.33;3.00;;;;;;;;5102040;27;45434;-76
2023/10/31 01:34:31;;;;;;;;;4.00;3.00;;;;;;;;5101834;27;45640;-77
2023/10/31 01:36:56;;;;;;;;;3.00;3.00;;;;;;;;5101837;27;45286;-76
2023/10/31 01:39:21;;;;;;;;;1.67;1.67;;;;;;;;5101936;27;45511;-76
2023/10/31 01:41:46;;;;;;;;;3.00;2.00;;;;;;;;5101859;27;45334;-77
2023/10/31 01:44:11;;;;;;;;;2.33;2.33;;;;;;;;5101650;27;45506;-76
2023/10/31 01:46:36;;;;;;;;;2.00;2.00;;;;;;;;5101828;27;45267;-77
2023/10/31 01:49:02;;;;;;;;;2.67;2.67;;;;;;;;5102030;27;45337;-76
2023/10/31 01:51:27;;;;;;;;;2.00;2.00;;;;;;;;5101619;27;45522;-76
2023/10/31 01:53:53;;;;;;;;;1.67;1.67;;;;;;;;5101496;27;45623;-77
2023/10/31 01:56:18;;;;;;;;;2.33;1.33;;;;;;;;5101677;27;45338;-76
2023/10/31 01:58:44;;;;;;;;;2.00;2.00;;;;;;;;5101854;27;45395;-76
2023/10/31 02:01:09;;;;;;;;;1.33;1.33;;;;;;;;5101299;27;45453;-76
2023/10/31 02:03:34;;;;;;;;;1.67;1.67;;;;;;;;5101413;27;45391;-77
2023/10/31 02:05:59;;;;;;;;;3.33;2.33;;;;;;;;5099998;27;45251;-76
2023/10/31 02:08:25;;;;;;;;;0.00;0.00;;;;;;;;5101401;27;45479;-77
2023/10/31 02:10:50;;;;;;;;;3.33;3.33;;;;;;;;5101034;27;45381;-76
2023/10/31 02:13:16;;;;;;;;;3.00;3.00;;;;;;;;5101279;27;46473;-76
2023/10/31 02:15:41;;;;;;;;;1.00;1.00;;;;;;;;5101469;27;45148;-76
2023/10/31 02:18:07;;;;;;;;;2.00;2.00;;;;;;;;5101587;27;45333;-76
2023/10/31 02:20:32;;;;;;;;;3.00;3.00;;;;;;;;5101086;27;45257;-76
2023/10/31 02:22:58;;;;;;;;;3.33;3.33;;;;;;;;5100946;27;46095;-76
2023/10/31 02:25:23;;;;;;;;;3.00;2.00;;;;;;;;5101120;27;45246;-76
2023/10/31 02:27:48;;;;;;;;;4.00;3.00;;;;;;;;5101438;27;45380;-76
2023/10/31 02:30:14;;;;;;;;;2.00;2.00;;;;;;;;5084447;27;45526;-76
2023/10/31 02:32:39;;;;;;;;;3.33;3.33;;;;;;;;5080569;28;45455;-76
2023/10/31 02:35:05;;;;;;;;;3.00;3.00;;;;;;;;5080656;28;45254;-77
2023/10/31 02:37:30;;;;;;;;;2.00;2.00;;;;;;;;5080453;28;45307;-76
2023/10/31 02:39:55;;;;;;;;;4.00;4.00;;;;;;;;5080528;28;45647;-76
2023/10/31 02:42:20;;;;;;;;;3.00;3.00;;;;;;;;5080436;28;46014;-76
2023/10/31 02:44:46;;;;;;;;;5.33;4.33;;;;;;;;5080477;28;45335;-76
2023/10/31 02:47:11;;;;;;;;;1.00;1.00;;;;;;;;5080372;28;45398;-77
2023/10/31 02:49:36;;;;;;;;;3.33;3.33;;;;;;;;5080361;28;45402;-76
2023/10/31 02:52:02;;;;;;;;;5.00;5.00;;;;;;;;5080087;28;46682;-76
2023/10/31 02:54:27;;;;;;;;;5.33;4.67;;;;;;;;5080319;28;45393;-76
2023/10/31 02:56:52;;;;;;;;;6.00;6.00;;;;;;;;5080351;28;45441;-76
2023/10/31 02:59:17;;;;;;;;;7.00;7.00;;;;;;;;5080235;28;45366;-77
2023/10/31 03:01:42;;;;;;;;;4.00;4.00;;;;;;;;5080193;28;46170;-76
2023/10/31 03:04:08;;;;;;;;;6.00;5.00;;;;;;;;5079898;28;45410;-76
2023/10/31 03:06:33;;;;;;;;;7.00;5.33;;;;;;;;5080054;28;45305;-77
2023/10/31 03:08:58;;;;;;;;;7.33;7.33;;;;;;;;5079939;28;45419;-77
2023/10/31 03:11:24;;;;;;;;;5.33;5.33;;;;;;;;5080104;28;45398;-76
2023/10/31 03:13:49;;;;;;;;;6.00;5.67;;;;;;;;5080071;28;45385;-76
2023/10/31 03:16:14;;;;;;;;;9.33;6.00;;;;;;;;5080172;28;45266;-76
2023/10/31 03:18:39;;;;;;;;;6.00;5.00;;;;;;;;5078990;28;45270;-76
2023/10/31 03:21:05;;;;;;;;;7.00;5.67;;;;;;;;5079915;28;46229;-77
2023/10/31 03:23:30;;;;;;;;;7.67;7.67;;;;;;;;5079639;28;45277;-76
2023/10/31 03:25:55;;;;;;;;;10.00;7.00;;;;;;;;5080325;28;45265;-76
2023/10/31 03:28:23;;;;;;;;;7.67;7.00;;;;;;;;5080301;27;45278;-77
2023/10/31 03:30:48;;;;;;;;;7.00;7.00;;;;;;;;5100132;27;45997;-76
2023/10/31 03:33:14;;;;;;;;;10.00;7.33;;;;;;;;5100192;27;45296;-77
2023/10/31 03:35:39;;;;;;;;;11.33;9.33;;;;;;;;5100298;27;45212;-76
2023/10/31 03:38:04;;;;;;;;;7.00;7.00;;;;;;;;5100181;27;45292;-77
2023/10/31 03:40:29;;;;;;;;;10.00;6.33;;;;;;;;5100062;27;46395;-76
2023/10/31 03:42:54;;;;;;;;;8.67;7.00;;;;;;;;5099883;27;45429;-77
2023/10/31 03:45:19;;;;;;;;;7.67;7.67;;;;;;;;5099329;27;45548;-76
2023/10/31 03:47:45;;;;;;;;;8.00;6.00;;;;;;;;5099278;27;45511;-77
2023/10/31 03:50:10;;;;;;;;;4.00;4.00;;;;;;;;5099944;27;45589;-76
2023/10/31 03:52:35;;;;;;;;;7.67;7.67;;;;;;;;5098222;27;45401;-77
2023/10/31 03:55:00;;;;;;;;;6.67;6.67;;;;;;;;5100281;27;45300;-77
2023/10/31 03:57:25;;;;;;;;;7.00;6.00;;;;;;;;5099943;27;45461;-76
2023/10/31 03:59:51;;;;;;;;;8.33;7.33;;;;;;;;5099882;27;46663;-76
2023/10/31 04:02:16;;;;;;;;;5.67;5.67;;;;;;;;5099902;27;45452;-77
2023/10/31 04:04:41;;;;;;;;;7.00;7.00;;;;;;;;5100038;27;45384;-77
2023/10/31 04:07:06;;;;;;;;;9.00;7.00;;;;;;;;5099314;27;45421;-77
2023/10/31 04:09:32;;;;;;;;;9.00;7.00;;;;;;;;5099772;27;45741;-76
2023/10/31 04:11:57;;;;;;;;;7.33;6.33;;;;;;;;5099846;27;45311;-76
2023/10/31 04:14:22;;;;;;;;;10.33;9.00;;;;;;;;5100037;27;45646;-77
2023/10/31 04:16:47;;;;;;;;;7.00;7.00;;;;;;;;5099588;27;45394;-76
2023/10/31 04:19:13;;;;;;;;;10.00;7.00;;;;;;;;5099498;27;45362;-76
2023/10/31 04:21:38;;;;;;;;;7.33;6.00;;;;;;;;5099515;27;45321;-76
2023/10/31 04:24:04;;;;;;;;;8.33;8.00;;;;;;;;5099470;27;45297;-76
2023/10/31 04:26:29;;;;;;;;;5.67;5.67;;;;;;;;5099550;27;45505;-76
2023/10/31 04:28:54;;;;;;;;;7.00;6.67;;;;;;;;5094259;27;46309;-76
2023/10/31 04:31:19;;;;;;;;;8.33;8.33;;;;;;;;5082421;28;45324;-76
2023/10/31 04:33:44;;;;;;;;;10.00;7.33;;;;;;;;5082860;28;45357;-77
2023/10/31 04:36:10;;;;;;;;;10.67;10.00;;;;;;;;5082272;28;45606;-76
2023/10/31 04:38:36;;;;;;;;;9.67;9.67;;;;;;;;5082241;28;45143;-76
2023/10/31 04:41:01;;;;;;;;;11.67;10.67;;;;;;;;5082492;28;45319;-76
2023/10/31 04:43:26;;;;;;;;;14.67;11.67;;;;;;;;5082387;28;45458;-77
2023/10/31 04:45:51;;;;;;;;;11.00;10.00;;;;;;;;5082527;28;45274;-76
2023/10/31 04:48:17;;;;;;;;;11.00;11.00;;;;;;;;5081970;28;45991;-77
2023/10/31 04:50:42;;;;;;;;;11.67;10.00;;;;;;;;5082285;28;45271;-77
2023/10/31 04:53:07;;;;;;;;;8.67;8.00;;;;;;;;5082223;28;45268;-76
2023/10/31 04:55:32;;;;;;;;;9.00;9.00;;;;;;;;5082234;28;45192;-76
2023/10/31 04:57:58;;;;;;;;;7.33;6.33;;;;;;;;5082136;28;46207;-76
2023/10/31 05:00:23;;;;;;;;;10.00;8.67;;;;;;;;5082312;28;45346;-76
2023/10/31 05:02:48;;;;;;;;;8.00;8.00;;;;;;;;5082189;28;45261;-76
2023/10/31 05:05:14;;;;;;;;;6.00;6.00;;;;;;;;5082100;28;45316;-76
2023/10/31 05:07:39;;;;;;;;;7.00;5.67;;;;;;;;5081604;28;45366;-77
2023/10/31 05:10:05;;;;;;;;;4.33;4.33;;;;;;;;5081871;28;45337;-76
2023/10/31 05:12:30;;;;;;;;;4.33;4.33;;;;;;;;5081995;28;45368;-76
2023/10/31 05:14:55;;;;;;;;;3.00;3.00;;;;;;;;5082028;28;45383;-77
2023/10/31 05:17:21;;;;;;;;;4.00;4.00;;;;;;;;5081866;28;45278;-76
2023/10/31 05:19:46;;;;;;;;;5.00;4.00;;;;;;;;5081638;28;45409;-76
2023/10/31 05:22:11;;;;;;;;;5.00;5.00;;;;;;;;5081559;28;45295;-77
2023/10/31 05:24:36;;;;;;;;;5.00;5.00;;;;;;;;5081733;28;45369;-77
2023/10/31 05:27:03;;;;;;;;;6.00;4.00;;;;;;;;5081832;28;45333;-77
2023/10/31 05:29:29;;;;;;;;;3.00;3.00;;;;;;;;5091523;27;45321;-76
2023/10/31 05:31:54;;;;;;;;;5.33;5.33;;;;;;;;5102230;27;45242;-77
2023/10/31 05:34:19;;;;;;;;;4.67;3.00;;;;;;;;5102090;27;45222;-77
2023/10/31 05:36:45;;;;;;;;;4.00;4.00;;;;;;;;5101772;27;46282;-77
2023/10/31 05:39:10;;;;;;;;;4.00;4.00;;;;;;;;5101838;27;45326;-77
2023/10/31 05:41:35;;;;;;;;;4.00;4.00;;;;;;;;5101266;27;45230;-76
2023/10/31 05:44:00;;;;;;;;;5.00;5.00;;;;;;;;5101904;27;45201;-77
2023/10/31 05:46:26;;;;;;;;;6.33;6.33;;;;;;;;5101669;27;46499;-76
2023/10/31 05:48:52;;;;;;;;;5.00;5.00;;;;;;;;5101796;27;45341;-76
2023/10/31 05:51:17;;;;;;;;;4.00;4.00;;;;;;;;5101272;27;45225;-76
2023/10/31 05:53:43;;;;;;;;;10.67;8.00;;;;;;;;5100938;27;45239;-77
2023/10/31 05:56:09;;;;;;;;;7.33;6.00;;;;;;;;5101534;27;45218;-76
2023/10/31 05:58:34;;;;;;;;;7.67;7.00;;;;;;;;5101742;27;45467;-76
2023/10/31 06:01:00;;;;;;;;;8.67;7.33;;;;;;;;5101823;27;45365;-76
2023/10/31 06:03:25;;;;;;;;;11.33;8.67;;;;;;;;5101453;27;45501;-76
2023/10/31 06:05:50;;;;;;;;;6.33;6.33;;;;;;;;5101490;27;45439;-77
2023/10/31 06:08:15;;;;;;;;;9.67;9.67;;;;;;;;5101266;27;45429;-76
2023/10/31 06:10:40;;;;;;;;;8.33;7.33;;;;;;;;5101264;27;45446;-76
2023/10/31 06:13:06;;;;;;;;;8.00;8.00;;;;;;;;5095514;27;45245;-76
2023/10/31 06:15:31;;;;;;;;;9.33;8.67;;;;;;;;5061812;27;46297;-76
2023/10/31 06:17:56;;;;;;;;;6.67;6.67;;;;;;;;5060710;28;45346;-77
2023/10/31 06:20:22;;;;;;;;;7.33;7.33;;;;;;;;5060706;28;45492;-77
2023/10/31 06:22:47;;;;;;;;;9.67;8.33;;;;;;;;5060319;28;45433;-77
2023/10/31 06:25:12;;;;;;;;;7.33;6.00;;;;;;;;5060719;28;45468;-77
2023/10/31 06:27:37;;;;;;;;;8.00;8.00;;;;;;;;5060645;28;45380;-76
2023/10/31 06:30:02;;;;;;;;;8.00;8.00;;;;;;;;5090301;27;45365;-77
2023/10/31 06:32:28;;;;;;;;;7.00;7.00;;;;;;;;5101282;27;45354;-76
2023/10/31 06:34:53;;;;;;;;;6.33;6.33;;;;;;;;5101276;27;46285;-77
2023/10/31 06:37:18;;;;;;;;;8.00;8.00;;;;;;;;5100521;27;45394;-78
2023/10/31 06:39:43;;;;;;;;;8.33;8.33;;;;;;;;5101338;27;45297;-76
2023/10/31 06:42:08;;;;;;;;;11.33;10.00;;;;;;;;5099867;27;45544;-75
2023/10/31 06:44:33;;;;;;;;;9.33;8.00;;;;;;;;5100743;27;45385;-75
2023/10/31 06:46:59;;;;;;;;;6.33;6.33;;;;;;;;5100604;27;45436;-75
2023/10/31 06:49:24;;;;;;;;;7.33;7.33;;;;;;;;5101326;27;45340;-76
2023/10/31 06:51:49;;;;;;;;;5.67;5.00;;;;;;;;5081547;27;45461;-76
2023/10/31 06:54:14;;;;;;;;;8.00;7.00;;;;;;;;5080337;28;45267;-76
2023/10/31 06:56:40;;;;;;;;;7.00;7.00;;;;;;;;5080172;28;45278;-76
2023/10/31 06:59:05;;;;;;;;;9.33;9.33;;;;;;;;5072080;28;45417;-76
2023/10/31 07:01:30;;;;;;;;;11.00;10.33;;;;;;;;5067276;28;45257;-76
2023/10/31 07:03:55;;;;;;;;;11.00;10.33;;;;;;;;5060803;28;46273;-76
2023/10/31 07:06:21;;;;;;;;;9.67;8.33;;;;;;;;5059436;28;45358;-76
2023/10/31 07:08:46;;;;;;;;;6.00;6.00;;;;;;;;5059917;28;45179;-76
2023/10/31 07:11:11;;;;;;;;;6.00;5.00;;;;;;;;5059847;28;45465;-76
2023/10/31 07:13:36;;;;;;;;;6.33;6.33;;;;;;;;5075095;28;45292;-77
2023/10/31 07:16:02;;;;;;;;;2.67;2.67;;;;;;;;5080151;28;45282;-76
2023/10/31 07:18:27;;;;;;;;;5.00;5.00;;;;;;;;5070759;28;45308;-76
2023/10/31 07:20:53;;;;;;;;;4.33;4.00;;;;;;;;5065880;28;45541;-76
2023/10/31 07:23:18;;;;;;;;;4.33;4.33;;;;;;;;5064243;28;46449;-76
2023/10/31 07:25:43;;;;;;;;;5.00;4.00;;;;;;;;5059940;28;45264;-76
2023/10/31 07:28:08;;;;;;;;;5.00;5.00;;;;;;;;5060025;28;45227;-75
2023/10/31 07:30:33;;;;;;;;;5.33;5.33;;;;;;;;5097565;27;45621;-75
2023/10/31 07:32:59;;;;;;;;;3.67;3.67;;;;;;;;5100213;27;45589;-75
2023/10/31 07:35:24;;;;;;;;;3.67;3.67;;;;;;;;5090479;27;45246;-75
2023/10/31 07:37:49;;;;;;;;;3.33;2.67;;;;;;;;5081262;28;45299;-76
2023/10/31 07:40:14;;;;;;;;;4.33;3.33;;;;;;;;5076036;27;45527;-75
2023/10/31 07:42:39;;;;;;;;;2.33;2.00;;;;;;;;5080249;28;46692;-76
2023/10/31 07:45:05;;;;;;;;;4.00;3.67;;;;;;;;5087364;27;45416;-76
2023/10/31 07:47:30;;;;;;;;;5.33;4.33;;;;;;;;5091760;27;45271;-76
2023/10/31 07:49:55;;;;;;;;;4.67;4.67;;;;;;;;5068056;28;45472;-76
2023/10/31 07:52:20;;;;;;;;;4.33;3.67;;;;;;;;5069010;27;45424;-76
2023/10/31 07:54:46;;;;;;;;;5.00;4.00;;;;;;;;5079240;28;45365;-76
2023/10/31 07:57:11;;;;;;;;;3.00;3.00;;;;;;;;5079808;27;45453;-76
2023/10/31 07:59:36;;;;;;;;;3.33;3.33;;;;;;;;5079802;28;45485;-78
2023/10/31 08:02:03;;;;;;;;;4.33;3.67;;;;;;;;5066235;28;47506;-75
2023/10/31 08:04:28;;;;;;;;;6.00;5.33;;;;;;;;5070017;27;45332;-76
2023/10/31 08:06:53;;;;;;;;;4.67;4.67;;;;;;;;5072322;28;45283;-76
2023/10/31 08:09:18;;;;;;;;;5.00;5.00;;;;;;;;5070386;27;45385;-75
2023/10/31 08:11:44;;;;;;;;;10.00;9.67;;;;;;;;5072588;28;45306;-76
2023/10/31 08:14:10;;;;;;;;;9.00;7.33;;;;;;;;5071467;27;45352;-76
2023/10/31 08:16:35;;;;;;;;;5.00;5.00;;;;;;;;5069487;28;45337;-77
2023/10/31 08:19:00;;;;;;;;;9.00;6.67;;;;;;;;5070931;28;45425;-76
2023/10/31 08:21:28;;;;;;;;;5.33;5.33;;;;;;;;5069178;28;45277;-76
2023/10/31 08:23:53;;;;;;;;;4.33;4.33;;;;;;;;5068039;28;45461;-76
2023/10/31 08:26:18;;;;;;;;;5.00;4.33;;;;;;;;5062410;28;45339;-75
2023/10/31 08:28:43;;;;;;;;;6.00;4.33;;;;;;;;5078855;27;45448;-76
2023/10/31 08:31:08;;;;;;;;;4.00;4.00;;;;;;;;5087658;27;46008;-76
2023/10/31 08:33:33;;;;;;;;;6.33;5.67;;;;;;;;5074048;28;45355;-76
2023/10/31 08:35:59;;;;;;;;;4.67;4.67;;;;;;;;5057584;27;45225;-76
2023/10/31 08:38:24;;;;;;;;;5.00;3.33;;;;;;;;5062950;27;45677;-75
2023/10/31 08:40:49;;;;;;;;;4.00;4.00;;;;;;;;5081528;28;45672;-76
2023/10/31 08:43:14;;;;;;;;;4.33;4.33;;;;;;;;5087075;27;45445;-77
2023/10/31 08:45:39;;;;;;;;;5.67;4.67;;;;;;;;5082018;28;45345;-78
2023/10/31 08:48:05;;;;;;;;;4.33;4.33;;;;;;;;5082095;27;45509;-76
2023/10/31 08:50:30;;;;;;;;;5.67;5.00;;;;;;;;5082777;28;45315;-76
2023/10/31 08:52:55;;;;;;;;;4.67;4.67;;;;;;;;5081025;27;45809;-75
2023/10/31 08:55:20;;;;;;;;;4.33;4.33;;;;;;;;5082279;28;45366;-76
2023/10/31 08:57:46;;;;;;;;;10.67;10.00;;;;;;;;5081767;27;45333;-76
2023/10/31 09:00:12;;;;;;;;;8.67;8.00;;;;;;;;5081985;28;45499;-77
2023/10/31 09:02:37;;;;;;;;;7.00;7.00;;;;;;;;5081955;27;45421;-76
2023/10/31 09:05:02;;;;;;;;;5.67;5.00;;;;;;;;5077606;28;45527;-76
2023/10/31 09:07:27;;;;;;;;;6.33;5.00;;;;;;;;5076889;27;45526;-77
2023/10/31 09:09:53;;;;;;;;;6.00;4.67;;;;;;;;5080816;28;45412;-76
2023/10/31 09:12:18;;;;;;;;;7.33;6.33;;;;;;;;5080420;27;45531;-76
2023/10/31 09:14:43;;;;;;;;;7.00;7.00;;;;;;;;5080111;28;45448;-76
2023/10/31 09:17:08;;;;;;;;;4.00;4.00;;;;;;;;5086058;27;45466;-75
2023/10/31 09:19:34;;;;;;;;;4.33;4.00;;;;;;;;5101466;27;45335;-76
2023/10/31 09:21:59;;;;;;;;;15.33;15.00;;;;;;;;5100582;27;45285;-76
2023/10/31 09:24:24;;;;;;;;;14.00;13.00;;;;;;;;5101698;27;45416;-76
2023/10/31 09:26:49;;;;;;;;;12.00;10.00;;;;;;;;5101178;27;45389;-76
2023/10/31 09:29:14;;;;;;;;;6.33;6.33;;;;;;;;5092996;27;45423;-76
2023/10/31 09:31:39;;;;;;;;;10.67;10.67;;;;;;;;5071936;27;45306;-75
2023/10/31 09:34:05;;;;;;;;;12.00;12.00;;;;;;;;5079941;28;45409;-76
2023/10/31 09:36:34;;;;;;;;;6.00;6.00;;;;;;;;5080251;27;45197;-76
2023/10/31 09:38:59;;;;;;;;;11.33;9.00;;;;;;;;5097264;27;46960;-76
2023/10/31 09:41:24;;;;;;;;;7.00;7.00;;;;;;;;5080720;28;45206;-76
2023/10/31 09:43:50;;;;;;;;;6.00;6.00;;;;;;;;5081012;27;45528;-77
2023/10/31 09:46:15;;;;;;;;;8.00;7.00;;;;;;;;5080565;28;45491;-76
2023/10/31 09:48:41;;;;;;;;;8.00;7.67;;;;;;;;5080305;27;45386;-76
2023/10/31 09:51:06;;;;;;;;;23.00;20.00;;;;;;;;5080020;28;45420;-76
2023/10/31 09:53:33;;;;;;;;;17.33;14.67;;;;;;;;5081830;27;45839;-76
2023/10/31 09:55:58;;;;;;;;;8.00;8.00;;;;;;;;5081661;28;45464;-76
2023/10/31 09:58:24;;;;;;;;;18.67;18.67;;;;;;;;5081507;27;46213;-77
2023/10/31 10:00:49;;;;;;;;;8.00;8.00;;;;;;;;5081475;28;45365;-77
2023/10/31 10:03:14;;;;;;;;;12.00;11.67;;;;;;;;5082638;27;45322;-76
2023/10/31 10:05:42;;;;;;;;;4.00;4.00;;;;;;;;5080425;28;45403;-77
2023/10/31 10:08:09;;;;;;;;;6.67;5.00;;;;;;;;5076885;27;45539;-77
2023/10/31 10:10:35;;;;;;;;;9.00;7.67;;;;;;;;5065780;28;45252;-78
2023/10/31 10:13:02;;;;;;;;;7.33;5.67;;;;;;;;5070341;27;45386;-76
2023/10/31 10:15:28;;;;;;;;;5.33;5.00;;;;;;;;5069729;28;45495;-76
2023/10/31 10:17:53;;;;;;;;;4.67;4.00;;;;;;;;5076908;27;46179;-77
2023/10/31 10:20:19;;;;;;;;;3.00;3.00;;;;;;;;5061368;27;45458;-76
2023/10/31 10:22:44;;;;;;;;;4.00;4.00;;;;;;;;5069160;27;45492;-76
2023/10/31 10:25:11;;;;;;;;;4.00;4.00;;;;;;;;5080158;28;45292;-76
2023/10/31 10:27:37;;;;;;;;;4.00;4.00;;;;;;;;5079639;27;45468;-75
2023/10/31 10:30:03;;;;;;;;;3.67;2.00;;;;;;;;5094894;27;45225;-77
2023/10/31 10:32:28;;;;;;;;;2.33;2.33;;;;;;;;5098722;27;45325;-75
2023/10/31 10:34:54;;;;;;;;;2.00;2.00;;;;;;;;5100500;27;46060;-76
2023/10/31 10:37:19;;;;;;;;;3.00;3.00;;;;;;;;5093956;27;46443;-75
2023/10/31 10:39:47;;;;;;;;;3.33;3.00;;;;;;;;5078537;28;45425;-76
2023/10/31 10:42:16;;;;;;;;;3.33;2.67;;;;;;;;5061312;27;45344;-77
2023/10/31 10:44:43;;;;;;;;;2.00;2.00;;;;;;;;5079086;28;45393;-75
2023/10/31 10:47:09;;;;;;;;;2.67;2.67;;;;;;;;5078446;27;46350;-74
2023/10/31 10:49:40;;;;;;;;;3.00;3.00;;;;;;;;5080210;28;45204;-76
2023/10/31 10:52:23;;;;;;;;;2.67;2.67;;;;;;;;5079472;27;45444;-75
2023/10/31 10:54:53;;;;;;;;;3.00;3.00;;;;;;;;5076276;28;45418;-75
2023/10/31 10:57:31;;;;;;;;;3.33;3.33;;;;;;;;5079925;27;45252;-75
2023/10/31 11:00:01;;;;;;;;;4.00;4.00;;;;;;;;5067540;28;45458;-76
2023/10/31 11:02:27;;;;;;;;;4.00;2.67;;;;;;;;5071452;27;45301;-74
2023/10/31 11:04:52;;;;;;;;;3.67;3.67;;;;;;;;5066205;28;45975;-75
2023/10/31 11:07:18;;;;;;;;;2.33;2.33;;;;;;;;5058623;28;45546;-75
2023/10/31 11:09:43;;;;;;;;;3.00;3.00;;;;;;;;5058023;28;45339;-75
2023/10/31 11:12:10;;;;;;;;;1.67;1.67;;;;;;;;5058641;28;45635;-74
2023/10/31 11:14:35;;;;;;;;;1.00;1.00;;;;;;;;5059723;28;45449;-74
2023/10/31 11:17:03;;;;;;;;;3.67;2.67;;;;;;;;5059440;28;45378;-75
2023/10/31 11:19:29;;;;;;;;;2.00;2.00;;;;;;;;5059728;28;45299;-76
2023/10/31 11:21:57;;;;;;;;;3.67;3.00;;;;;;;;5059573;28;45342;-76
2023/10/31 11:24:23;;;;;;;;;3.00;1.00;;;;;;;;5059466;28;45483;-76
2023/10/31 11:26:52;;;;;;;;;2.67;2.00;;;;;;;;5059497;28;45322;-76
2023/10/31 11:29:18;;;;;;;;;3.67;2.67;;;;;;;;5076402;27;45301;-75
2023/10/31 11:31:43;;;;;;;;;4.33;4.00;;;;;;;;5100618;27;45404;-76
2023/10/31 11:34:08;;;;;;;;;2.00;2.00;;;;;;;;5100312;27;45516;-77
2023/10/31 11:36:35;;;;;;;;;2.00;2.00;;;;;;;;5099946;27;45830;-75
2023/10/31 11:39:21;;;;;;;;;2.00;2.00;;;;;;;;5100245;27;45270;-75
2023/10/31 11:41:50;;;;;;;;;1.00;1.00;;;;;;;;5103998;27;45253;-76
2023/10/31 11:44:16;;;;;;;;;2.33;2.00;;;;;;;;5095311;27;45393;-76
2023/10/31 11:46:41;;;;;;;;;3.25;1.50;;;;;;;;5062831;28;46066;-74
2023/10/31 11:49:07;;;;;;;;;1.33;1.33;;;;;;;;5063094;28;45393;-74
2023/10/31 11:51:32;;;;;;;;;3.00;3.00;;;;;;;;5062518;28;45362;-75
2023/10/31 11:53:58;;;;;;;;;0.00;0.00;;;;;;;;5071502;28;45330;-74
2023/10/31 11:56:24;;;;;;;;;1.00;1.00;;;;;;;;5077818;28;46238;-75
2023/10/31 11:59:02;;;;;;;;;3.00;2.00;;;;;;;;5078298;28;45580;-76
2023/10/31 12:01:27;;;;;;;;;2.00;2.00;;;;;;;;5080280;28;45272;-75
2023/10/31 12:03:52;;;;;;;;;2.00;2.00;;;;;;;;5082662;28;45389;-75
2023/10/31 12:06:20;;;;;;;;;3.00;1.00;;;;;;;;5081775;28;45412;-75
2023/10/31 12:08:47;;;;;;;;;3.00;1.75;;;;;;;;5082433;28;45603;-75
2023/10/31 12:11:13;;;;;;;;;4.75;1.00;;;;;;;;5082797;28;45368;-75
2023/10/31 12:13:39;;;;;;;;;1.33;1.33;;;;;;;;5082392;28;45469;-76
2023/10/31 12:16:06;;;;;;;;;1.50;1.50;;;;;;;;5078397;28;45375;-76
2023/10/31 12:18:31;;;;;;;;;3.67;2.67;;;;;;;;5080434;28;45377;-76
2023/10/31 12:20:56;;;;;;;;;3.00;3.00;;;;;;;;5067477;28;45691;-74
2023/10/31 12:23:22;;;;;;;;;2.33;2.00;;;;;;;;5062206;28;45374;-74
2023/10/31 12:25:47;;;;;;;;;3.67;3.00;;;;;;;;5067173;27;46465;-75
2023/10/31 12:28:16;;;;;;;;;4.67;3.67;;;;;;;;5061701;28;45393;-76
2023/10/31 12:30:44;;;;;;;;;0.00;0.00;;;;;;;;5101842;27;45427;-76
2023/10/31 12:33:09;;;;;;;;;0.75;0.75;;;;;;;;5087911;27;44831;-76
2023/10/31 12:35:34;;;;;;;;;1.25;0.75;;;;;;;;5079091;27;46355;-75
2023/10/31 12:38:00;;;;;;;;;2.00;1.00;;;;;;;;5078942;28;45466;-75
2023/10/31 12:40:25;;;;;;;;;2.00;2.00;;;;;;;;5080215;27;45723;-75
2023/10/31 12:42:50;;;;;;;;;2.00;2.00;;;;;;;;5079013;28;45584;-75
2023/10/31 12:45:17;;;;;;;;;2.00;2.00;;;;;;;;5070435;28;45965;-74
2023/10/31 12:47:42;;;;;;;;;1.00;1.00;;;;;;;;5059460;28;45557;-74
2023/10/31 12:50:09;;;;;;;;;4.00;2.33;;;;;;;;5061249;28;45220;-74
2023/10/31 12:52:47;;;;;;;;;1.75;1.75;;;;;;;;5061583;28;45306;-75
2023/10/31 12:55:16;;;;;;;;;2.33;2.33;;;;;;;;5061814;28;45832;-74
2023/10/31 12:57:41;;;;;;;;;2.50;2.50;;;;;;;;5061546;28;45241;-74
2023/10/31 13:00:10;;;;;;;;;3.00;2.00;;;;;;;;5061778;28;45453;-76
2023/10/31 13:02:35;;;;;;;;;2.00;2.00;;;;;;;;5061551;28;45430;-75
2023/10/31 13:05:09;;;;;;;;;3.00;2.00;;;;;;;;5061616;28;45336;-74
2023/10/31 13:07:35;;;;;;;;;1.00;1.00;;;;;;;;5070434;28;45418;-75
2023/10/31 13:10:00;;;;;;;;;1.00;1.00;;;;;;;;5071614;28;45470;-75
2023/10/31 13:12:26;;;;;;;;;3.00;2.67;;;;;;;;5075701;28;45391;-75
2023/10/31 13:14:52;;;;;;;;;1.25;1.00;;;;;;;;5081749;28;45248;-75
2023/10/31 13:17:17;;;;;;;;;1.25;1.25;;;;;;;;5081868;28;45300;-75
2023/10/31 13:19:42;;;;;;;;;1.50;1.50;;;;;;;;5081955;28;45232;-75
2023/10/31 13:22:08;;;;;;;;;2.00;2.00;;;;;;;;5081324;28;45337;-75
2023/10/31 13:24:34;;;;;;;;;1.75;1.75;;;;;;;;5081581;28;46000;-75
2023/10/31 13:27:00;;;;;;;;;1.00;1.00;;;;;;;;5081606;28;45342;-75
2023/10/31 13:29:27;;;;;;;;;4.00;3.00;;;;;;;;5091370;27;45255;-75
2023/10/31 13:31:52;;;;;;;;;2.50;2.50;;;;;;;;5101940;27;45476;-74
2023/10/31 13:34:17;;;;;;;;;1.00;1.00;;;;;;;;5101925;27;45302;-75
2023/10/31 13:36:44;;;;;;;;;1.50;1.00;;;;;;;;5101705;27;45318;-75
2023/10/31 13:39:09;;;;;;;;;2.75;2.75;;;;;;;;5102101;27;45330;-75
2023/10/31 13:41:34;;;;;;;;;1.25;1.00;;;;;;;;5101916;27;45212;-76
2023/10/31 13:43:59;;;;;;;;;0.75;0.75;;;;;;;;5101736;27;46447;-75
2023/10/31 13:46:25;;;;;;;;;1.25;0.75;;;;;;;;5101697;27;45252;-75
2023/10/31 13:48:50;;;;;;;;;1.25;1.00;;;;;;;;5102146;27;45796;-75
2023/10/31 13:51:16;;;;;;;;;1.00;1.00;;;;;;;;5101575;27;45405;-76
2023/10/31 13:53:41;;;;;;;;;1.00;1.00;;;;;;;;5093479;27;45417;-75
2023/10/31 13:56:06;;;;;;;;;1.50;1.50;;;;;;;;5061832;28;45306;-76
2023/10/31 13:58:32;;;;;;;;;1.25;1.00;;;;;;;;5061045;28;45297;-76
2023/10/31 14:00:57;;;;;;;;;0.25;0.25;;;;;;;;5060861;28;45563;-76
2023/10/31 14:03:23;;;;;;;;;1.50;1.50;;;;;;;;5059862;28;45348;-76
2023/10/31 14:05:48;;;;;;;;;3.75;1.25;;;;;;;;5060548;28;45354;-76
2023/10/31 14:08:14;;;;;;;;;2.00;2.00;;;;;;;;5060739;28;45250;-76
2023/10/31 14:10:39;;;;;;;;;1.00;1.00;;;;;;;;5060669;28;45244;-77
2023/10/31 14:13:05;;;;;;;;;1.00;0.50;;;;;;;;5060707;28;46270;-77
2023/10/31 14:15:30;;;;;;;;;1.50;1.50;;;;;;;;5060629;28;45333;-76
2023/10/31 14:17:55;;;;;;;;;2.25;2.00;;;;;;;;5060867;28;45110;-75
2023/10/31 14:20:20;;;;;;;;;1.00;1.00;;;;;;;;5060511;28;45414;-76
2023/10/31 14:22:49;;;;;;;;;2.50;2.00;;;;;;;;5058786;28;47193;-76
2023/10/31 14:25:15;;;;;;;;;2.00;1.00;;;;;;;;5060469;28;45323;-75
2023/10/31 14:27:40;;;;;;;;;2.50;0.50;;;;;;;;5060612;28;45288;-74
2023/10/31 14:30:06;;;;;;;;;2.00;2.00;;;;;;;;5089285;27;45972;-75